createdAt,value
2019-06-07T00:01:21.127Z,18.60
2019-06-07T00:03:52.338Z,18.60
2019-06-07T00:06:25.609Z,18.60
2019-06-07T00:08:53.211Z,18.60
2019-06-07T00:11:23.795Z,18.50
2019-06-07T00:13:55.055Z,18.40
2019-06-07T00:16:24.677Z,18.50
2019-06-07T00:18:54.328Z,18.40
2019-06-07T00:22:06.603Z,18.30
2019-06-07T00:24:01.039Z,18.20
2019-06-07T00:26:55.071Z,18.20
2019-06-07T00:29:13.806Z,18.20
2019-06-07T00:31:44.171Z,18.20
2019-06-07T00:34:17.158Z,18.30
2019-06-07T00:36:50.147Z,18.30
2019-06-07T00:39:25.361Z,18.30
2019-06-07T00:41:55.504Z,18.20
2019-06-07T00:44:28.501Z,18.30
2019-06-07T00:47:00.555Z,18.30
2019-06-07T00:49:40.581Z,18.40
2019-06-07T00:52:06.838Z,18.30
2019-06-07T00:54:39.208Z,18.10
2019-06-07T00:57:12.488Z,17.90
2019-06-07T00:59:44.874Z,17.80
2019-06-07T01:02:19.229Z,17.90
2019-06-07T01:04:51.154Z,17.90
2019-06-07T01:07:24.569Z,18.00
2019-06-07T01:09:56.824Z,18.10
2019-06-07T01:12:29.500Z,18.20
2019-06-07T01:15:02.486Z,18.10
2019-06-07T01:17:43.827Z,17.90
2019-06-07T01:20:14.194Z,17.90
2019-06-07T01:22:45.920Z,18.10
2019-06-07T01:25:21.989Z,18.20
2019-06-07T01:27:51.848Z,18.10
2019-06-07T01:30:26.695Z,18.20
2019-06-07T01:33:01.073Z,18.20
2019-06-07T01:35:34.060Z,18.20
2019-06-07T01:38:07.049Z,18.20
2019-06-07T01:40:38.496Z,18.20
2019-06-07T01:43:10.799Z,18.00
2019-06-07T01:45:40.407Z,18.10
2019-06-07T01:48:10.053Z,17.90
2019-06-07T01:50:39.530Z,18.10
2019-06-07T01:53:09.139Z,18.10
2019-06-07T01:55:38.675Z,18.20
2019-06-07T01:58:08.282Z,18.10
2019-06-07T02:00:37.874Z,18.10
2019-06-07T02:03:07.560Z,18.10
2019-06-07T02:05:37.197Z,18.10
2019-06-07T02:08:06.855Z,18.20
2019-06-07T02:10:36.374Z,18.20
2019-06-07T02:13:05.987Z,18.10
2019-06-07T02:15:36.789Z,18.10
2019-06-07T02:18:06.679Z,18.10
2019-06-07T02:20:36.287Z,18.10
2019-06-07T02:23:05.899Z,18.10
2019-06-07T02:25:45.528Z,17.90
2019-06-07T02:28:27.531Z,17.90
2019-06-07T02:30:47.120Z,17.90
2019-06-07T02:33:09.233Z,17.80
2019-06-07T02:35:40.494Z,17.70
2019-06-07T02:38:09.923Z,17.70
2019-06-07T02:40:39.533Z,17.70
2019-06-07T02:43:09.145Z,17.70
2019-06-07T02:45:43.516Z,17.70
2019-06-07T02:48:10.878Z,17.70
2019-06-07T02:50:40.456Z,17.90
2019-06-07T02:53:10.074Z,17.80
2019-06-07T02:56:32.883Z,17.80
2019-06-07T02:58:10.914Z,17.70
2019-06-07T03:01:05.565Z,17.80
2019-06-07T03:03:17.935Z,17.80
2019-06-07T03:05:47.720Z,17.90
2019-06-07T03:08:17.838Z,17.90
2019-06-07T03:10:49.827Z,17.90
2019-06-07T03:13:20.763Z,17.90
2019-06-07T03:15:53.474Z,18.00
2019-06-07T03:18:41.941Z,17.90
2019-06-07T03:21:13.112Z,17.90
2019-06-07T03:23:44.239Z,18.00
2019-06-07T03:26:15.623Z,18.00
2019-06-07T03:28:45.311Z,17.90
2019-06-07T03:31:14.779Z,17.90
2019-06-07T03:33:45.627Z,17.90
2019-06-07T03:36:23.848Z,18.00
2019-06-07T03:38:46.403Z,18.00
2019-06-07T03:41:16.030Z,18.00
2019-06-07T03:43:45.659Z,17.90
2019-06-07T03:46:15.205Z,18.00
2019-06-07T03:48:45.711Z,18.00
2019-06-07T03:51:24.806Z,17.70
2019-06-07T03:53:46.455Z,17.80
2019-06-07T03:56:16.346Z,17.80
2019-06-07T03:58:50.165Z,17.70
2019-06-07T04:01:17.126Z,17.60
2019-06-07T04:03:51.817Z,17.60
2019-06-07T04:06:17.743Z,17.80
2019-06-07T04:08:47.355Z,17.80
2019-06-07T04:11:16.800Z,17.80
2019-06-07T04:13:46.347Z,17.90
2019-06-07T04:16:15.863Z,18.00
2019-06-07T04:18:45.407Z,17.90
2019-06-07T04:21:15.010Z,18.10
2019-06-07T04:23:45.777Z,18.20
2019-06-07T04:26:15.368Z,18.20
2019-06-07T04:31:16.237Z,18.20
2019-06-07T04:33:45.788Z,18.10
2019-06-07T04:36:15.619Z,17.90
2019-06-07T04:38:46.603Z,17.70
2019-06-07T04:41:18.388Z,17.50
2019-06-07T04:43:48.767Z,17.70
2019-06-07T04:46:20.986Z,17.70
2019-06-07T04:48:51.522Z,17.90
2019-06-07T04:51:23.947Z,18.10
2019-06-07T04:53:53.582Z,18.20
2019-06-07T04:56:23.103Z,18.20
2019-06-07T04:58:53.547Z,18.20
2019-06-07T05:01:27.842Z,18.10
2019-06-07T05:03:54.304Z,17.90
2019-06-07T05:06:24.820Z,18.10
2019-06-07T05:08:54.430Z,18.30
2019-06-07T05:11:23.970Z,18.30
2019-06-07T05:13:53.359Z,18.30
2019-06-07T05:16:22.900Z,18.50
2019-06-07T05:18:52.342Z,18.60
2019-06-07T05:21:21.987Z,18.90
2019-06-07T05:24:10.330Z,19.10
2019-06-07T05:26:22.624Z,19.30
2019-06-07T05:28:52.204Z,19.60
2019-06-07T05:31:21.674Z,19.80
2019-06-07T05:33:51.160Z,19.90
2019-06-07T05:36:20.838Z,20.00
2019-06-07T05:38:50.467Z,20.10
2019-06-07T05:41:19.979Z,20.30
2019-06-07T05:44:09.176Z,20.40
2019-06-07T05:46:20.883Z,20.60
2019-06-07T05:48:50.372Z,20.90
2019-06-07T05:51:19.884Z,21.00
2019-06-07T05:53:49.405Z,21.00
2019-06-07T05:56:19.122Z,21.20
2019-06-07T05:58:48.671Z,21.30
2019-06-07T06:03:49.538Z,21.10
2019-06-07T06:06:19.543Z,21.40
2019-06-07T06:08:49.524Z,21.50
2019-06-07T06:11:19.162Z,21.60
2019-06-07T06:14:05.974Z,21.80
2019-06-07T06:16:20.388Z,21.70
2019-06-07T06:18:49.834Z,21.80
2019-06-07T06:21:20.416Z,22.20
2019-06-07T06:23:51.965Z,22.40
2019-06-07T06:26:21.279Z,22.60
2019-06-07T06:28:50.839Z,22.60
2019-06-07T06:31:20.324Z,22.40
2019-06-07T06:33:50.196Z,22.50
2019-06-07T06:36:20.407Z,22.80
2019-06-07T06:38:51.596Z,22.70
2019-06-07T06:41:21.300Z,23.00
2019-06-07T06:43:52.598Z,22.90
2019-06-07T06:46:38.305Z,22.90
2019-06-07T06:48:55.093Z,23.30
2019-06-07T06:51:24.391Z,23.30
2019-06-07T06:53:53.903Z,23.10
2019-06-07T06:56:24.415Z,23.40
2019-06-07T06:59:34.586Z,23.50
2019-06-07T07:01:25.117Z,23.80
2019-06-07T07:04:11.458Z,23.80
2019-06-07T07:06:26.986Z,23.80
2019-06-07T07:08:57.636Z,24.00
2019-06-07T07:11:27.106Z,24.00
2019-06-07T07:13:57.281Z,23.80
2019-06-07T07:16:26.915Z,23.90
2019-06-07T07:18:56.425Z,24.20
2019-06-07T07:21:26.058Z,24.40
2019-06-07T07:24:19.023Z,24.20
2019-06-07T07:26:26.851Z,24.00
2019-06-07T07:28:57.682Z,24.30
2019-06-07T07:31:27.577Z,24.50
2019-06-07T07:34:29.037Z,24.40
2019-06-07T07:36:38.964Z,24.40
2019-06-07T07:39:04.742Z,24.90
2019-06-07T07:41:32.095Z,24.80
2019-06-07T07:44:07.042Z,24.70
2019-06-07T07:46:32.864Z,25.10
2019-06-07T07:49:02.339Z,25.10
2019-06-07T07:51:31.979Z,24.80
2019-06-07T07:54:10.743Z,24.70
2019-06-07T07:56:32.783Z,24.90
2019-06-07T07:59:03.015Z,24.80
2019-06-07T08:01:32.689Z,25.00
2019-06-07T08:04:02.329Z,25.30
2019-06-07T08:06:31.906Z,25.50
2019-06-07T08:09:01.530Z,25.60
2019-06-07T08:11:32.909Z,25.70
2019-06-07T08:14:02.621Z,25.60
2019-06-07T08:16:32.289Z,25.70
2019-06-07T08:19:04.099Z,25.40
2019-06-07T08:21:33.293Z,24.60
2019-06-07T08:24:05.105Z,24.10
2019-06-07T08:26:34.174Z,23.80
2019-06-07T08:29:03.780Z,23.90
2019-06-07T08:31:34.485Z,23.90
2019-06-07T08:34:04.281Z,24.30
2019-06-07T08:36:41.924Z,24.80
2019-06-07T08:39:07.888Z,25.10
2019-06-07T08:41:37.725Z,25.00
2019-06-07T08:44:22.779Z,25.10
2019-06-07T08:46:38.562Z,25.20
2019-06-07T08:49:08.213Z,25.20
2019-06-07T08:51:37.883Z,25.20
2019-06-07T08:54:21.765Z,24.90
2019-06-07T08:56:38.732Z,24.50
2019-06-07T08:59:11.545Z,24.10
2019-06-07T09:01:39.674Z,24.20
2019-06-07T09:04:11.113Z,24.50
2019-06-07T09:07:02.702Z,25.20
2019-06-07T09:09:11.789Z,25.30
2019-06-07T09:11:41.356Z,25.50
2019-06-07T09:14:10.983Z,25.40
2019-06-07T09:16:40.613Z,25.60
2019-06-07T09:19:11.143Z,25.70
2019-06-07T09:21:40.905Z,25.60
2019-06-07T09:24:11.974Z,25.80
2019-06-07T09:26:41.961Z,25.80
2019-06-07T09:29:12.966Z,25.80
2019-06-07T09:31:52.590Z,25.80
2019-06-07T09:34:15.594Z,25.50
2019-06-07T09:36:45.490Z,25.20
2019-06-07T09:39:15.149Z,25.20
2019-06-07T09:41:50.277Z,24.90
2019-06-07T09:44:24.669Z,24.90
2019-06-07T09:46:47.367Z,25.30
2019-06-07T09:49:30.582Z,25.20
2019-06-07T09:51:48.197Z,25.20
2019-06-07T09:56:48.997Z,25.60
2019-06-07T09:59:18.621Z,25.70
2019-06-07T10:01:49.591Z,25.70
2019-06-07T10:04:30.737Z,25.90
2019-06-07T10:06:50.584Z,25.80
2019-06-07T10:10:08.657Z,25.90
2019-06-07T10:11:51.516Z,26.00
2019-06-07T10:14:21.221Z,25.80
2019-06-07T10:16:50.819Z,25.50
2019-06-07T10:19:20.530Z,25.60
2019-06-07T10:21:50.153Z,25.80
2019-06-07T10:24:19.875Z,25.90
2019-06-07T10:26:49.466Z,25.90
2019-06-07T10:29:19.098Z,25.90
2019-06-07T10:31:48.807Z,25.90
2019-06-07T10:34:19.477Z,26.00
2019-06-07T10:36:49.533Z,25.80
2019-06-07T10:39:19.124Z,25.60
2019-06-07T10:41:48.758Z,25.70
2019-06-07T10:44:18.353Z,25.80
2019-06-07T10:46:47.984Z,25.90
2019-06-07T10:49:17.687Z,25.80
2019-06-07T10:51:47.273Z,25.90
2019-06-07T10:54:26.973Z,26.00
2019-06-07T10:56:48.226Z,26.10
2019-06-07T10:59:17.858Z,26.00
2019-06-07T11:01:47.470Z,25.90
2019-06-07T11:04:17.186Z,26.00
2019-06-07T11:06:46.783Z,25.90
2019-06-07T11:09:16.409Z,25.90
2019-06-07T11:11:46.039Z,26.00
2019-06-07T11:14:15.645Z,25.70
2019-06-07T11:16:45.334Z,25.40
2019-06-07T11:19:17.723Z,25.30
2019-06-07T11:21:46.251Z,25.20
2019-06-07T11:24:19.365Z,25.30
2019-06-07T11:26:47.210Z,25.10
2019-06-07T11:29:16.893Z,25.20
2019-06-07T11:31:47.534Z,25.60
2019-06-07T11:34:17.282Z,25.80
2019-06-07T11:36:46.890Z,26.10
2019-06-07T11:39:16.581Z,26.30
2019-06-07T11:41:46.177Z,26.30
2019-06-07T11:44:17.409Z,26.30
2019-06-07T11:46:47.007Z,26.10
2019-06-07T11:49:20.352Z,25.90
2019-06-07T11:51:47.893Z,26.00
2019-06-07T11:54:20.404Z,26.00
2019-06-07T11:56:48.813Z,25.70
2019-06-07T11:59:18.438Z,25.60
2019-06-07T12:01:48.030Z,25.50
2019-06-07T12:04:32.454Z,25.60
2019-06-07T12:06:48.914Z,25.70
2019-06-07T12:09:18.831Z,25.80
2019-06-07T12:11:48.601Z,25.50
2019-06-07T12:14:19.342Z,25.60
2019-06-07T12:16:50.158Z,25.40
2019-06-07T12:19:19.900Z,25.40
2019-06-07T12:21:50.147Z,25.60
2019-06-07T12:24:21.141Z,25.60
2019-06-07T12:26:50.865Z,25.60
2019-06-07T12:29:21.108Z,25.60
2019-06-07T12:31:50.724Z,25.40
2019-06-07T12:34:21.552Z,25.30
2019-06-07T12:36:51.322Z,25.20
2019-06-07T12:39:22.159Z,25.40
2019-06-07T12:41:51.916Z,25.40
2019-06-07T12:44:22.727Z,25.50
2019-06-07T12:46:52.446Z,25.60
2019-06-07T12:49:23.491Z,25.50
2019-06-07T12:51:53.319Z,25.60
2019-06-07T12:54:23.858Z,25.60
2019-06-07T12:56:53.596Z,25.70
2019-06-07T12:59:24.294Z,25.70
2019-06-07T13:01:54.034Z,25.70
2019-06-07T13:04:24.971Z,25.60
2019-06-07T13:06:54.693Z,25.60
2019-06-07T13:09:24.409Z,25.60
2019-06-07T13:11:54.061Z,25.70
2019-06-07T13:14:24.025Z,25.70
2019-06-07T13:16:53.665Z,26.00
2019-06-07T13:19:24.326Z,26.20
2019-06-07T13:21:54.993Z,26.20
2019-06-07T13:24:25.163Z,26.10
2019-06-07T13:26:55.983Z,26.10
2019-06-07T13:29:29.427Z,26.10
2019-06-07T13:31:56.829Z,26.10
2019-06-07T13:34:26.426Z,26.10
2019-06-07T13:36:55.973Z,26.00
2019-06-07T13:39:27.800Z,26.00
2019-06-07T13:41:56.873Z,25.70
2019-06-07T13:44:26.526Z,25.80
2019-06-07T13:46:56.224Z,25.90
2019-06-07T13:49:25.859Z,25.80
2019-06-07T13:51:55.541Z,25.80
2019-06-07T13:54:25.257Z,25.70
2019-06-07T13:57:02.245Z,25.70
2019-06-07T13:59:26.446Z,25.70
2019-06-07T14:01:56.213Z,25.60
2019-06-07T14:04:27.100Z,25.70
2019-06-07T14:06:56.817Z,25.80
2019-06-07T14:09:27.598Z,25.90
2019-06-07T14:11:57.273Z,25.90
2019-06-07T14:14:27.523Z,25.90
2019-06-07T14:16:58.043Z,25.90
2019-06-07T14:19:28.728Z,25.70
2019-06-07T14:21:58.364Z,25.70
2019-06-07T14:24:29.097Z,25.80
2019-06-07T14:27:07.603Z,25.90
2019-06-07T14:29:37.776Z,25.80
2019-06-07T14:32:09.990Z,25.70
2019-06-07T14:34:39.606Z,25.60
2019-06-07T14:37:09.225Z,25.50
2019-06-07T14:39:38.851Z,25.50
2019-06-07T14:42:10.345Z,25.60
2019-06-07T14:44:39.685Z,25.80
2019-06-07T14:47:09.325Z,25.70
2019-06-07T14:49:39.202Z,25.80
2019-06-07T14:52:09.639Z,25.80
2019-06-07T14:54:39.578Z,25.70
2019-06-07T14:57:10.125Z,25.70
2019-06-07T14:59:39.678Z,25.70
2019-06-07T15:02:09.330Z,25.70
2019-06-07T15:04:41.873Z,25.80
2019-06-07T15:07:13.022Z,25.70
2019-06-07T15:09:43.756Z,25.80
2019-06-07T15:12:24.760Z,25.70
2019-06-07T15:14:44.457Z,25.50
2019-06-07T15:17:14.050Z,25.60
2019-06-07T15:19:43.744Z,25.70
2019-06-07T15:22:15.832Z,25.70
2019-06-07T15:24:45.473Z,25.70
2019-06-07T15:27:15.114Z,25.80
2019-06-07T15:29:44.707Z,25.90
2019-06-07T15:32:14.333Z,25.80
2019-06-07T15:34:43.949Z,25.90
2019-06-07T15:37:15.602Z,25.90
2019-06-07T15:39:46.905Z,25.80
2019-06-07T15:42:16.485Z,25.80
2019-06-07T15:44:46.173Z,25.70
2019-06-07T15:47:15.771Z,25.60
2019-06-07T15:49:45.393Z,25.60
2019-06-07T15:52:15.756Z,25.60
2019-06-07T15:54:45.457Z,25.60
2019-06-07T15:57:14.977Z,25.60
2019-06-07T15:59:44.598Z,25.60
2019-06-07T16:02:14.226Z,25.70
2019-06-07T16:04:43.838Z,25.70
2019-06-07T16:07:13.468Z,25.60
2019-06-07T16:09:43.085Z,25.60
2019-06-07T16:12:12.677Z,25.50
2019-06-07T16:14:43.477Z,25.60
2019-06-07T16:17:13.319Z,25.60
2019-06-07T16:22:30.329Z,25.50
2019-06-07T16:24:59.957Z,25.50
2019-06-07T16:27:29.646Z,25.50
2019-06-07T16:29:59.287Z,25.50
2019-06-07T16:32:28.973Z,25.40
2019-06-07T16:34:58.581Z,25.40
2019-06-07T16:37:28.202Z,25.40
2019-06-07T16:39:57.792Z,25.40
2019-06-07T16:42:27.405Z,25.40
2019-06-07T16:44:56.997Z,25.40
2019-06-07T16:47:26.619Z,25.40
2019-06-07T16:49:56.213Z,25.40
2019-06-07T16:52:25.829Z,25.50
2019-06-07T16:54:55.349Z,25.40
2019-06-07T16:57:24.976Z,25.40
2019-06-07T16:59:54.600Z,25.20
2019-06-07T17:02:24.241Z,25.10
2019-06-07T17:04:53.817Z,25.10
2019-06-07T17:07:23.441Z,25.10
2019-06-07T17:09:53.070Z,25.10
2019-06-07T17:12:22.704Z,25.10
2019-06-07T17:14:53.393Z,25.10
2019-06-07T17:17:24.001Z,25.00
2019-06-07T17:19:53.661Z,24.90
2019-06-07T17:22:23.280Z,24.90
2019-06-07T17:24:52.912Z,24.80
2019-06-07T17:27:22.501Z,24.80
2019-06-07T17:29:52.530Z,24.70
2019-06-07T17:32:22.117Z,24.70
2019-06-07T17:34:51.757Z,24.70
2019-06-07T17:37:21.455Z,24.50
2019-06-07T17:39:51.149Z,24.50
2019-06-07T17:42:20.733Z,24.50
2019-06-07T17:44:51.566Z,24.40
2019-06-07T17:47:21.297Z,24.40
2019-06-07T17:49:52.022Z,24.30
2019-06-07T17:52:21.757Z,24.20
2019-06-07T17:54:52.350Z,24.10
2019-06-07T17:57:22.150Z,24.10
2019-06-07T17:59:52.699Z,24.10
2019-06-07T18:02:22.340Z,24.00
2019-06-07T18:04:53.385Z,23.90
2019-06-07T18:07:26.529Z,23.90
2019-06-07T18:09:56.813Z,23.90
2019-06-07T18:12:26.352Z,23.90
2019-06-07T18:14:55.972Z,23.70
2019-06-07T18:17:34.159Z,23.70
2019-06-07T18:20:16.754Z,23.60
2019-06-07T18:22:47.050Z,23.60
2019-06-07T18:25:16.740Z,23.50
2019-06-07T18:27:46.579Z,23.50
2019-06-07T18:30:16.281Z,23.50
2019-06-07T18:32:46.841Z,23.40
2019-06-07T18:35:16.576Z,23.50
2019-06-07T18:37:46.947Z,23.40
2019-06-07T18:40:16.828Z,23.30
2019-06-07T18:42:47.138Z,23.20
2019-06-07T18:45:17.693Z,23.40
2019-06-07T18:47:47.855Z,23.40
2019-06-07T18:50:17.657Z,23.30
2019-06-07T18:52:48.556Z,23.20
2019-06-07T18:55:18.617Z,23.20
2019-06-07T18:57:48.303Z,23.20
2019-06-07T19:00:20.784Z,23.10
2019-06-07T19:02:51.745Z,22.90
2019-06-07T19:05:21.596Z,22.80
2019-06-07T19:07:52.441Z,22.90
2019-06-07T19:10:23.716Z,22.90
2019-06-07T19:12:53.409Z,22.80
2019-06-07T19:15:24.228Z,22.70
2019-06-07T19:17:54.113Z,22.70
2019-06-07T19:20:24.069Z,22.60
2019-06-07T19:22:54.178Z,22.60
2019-06-07T19:25:23.776Z,22.60
2019-06-07T19:27:54.760Z,22.20
2019-06-07T19:30:24.672Z,22.30
2019-06-07T19:32:55.101Z,22.40
2019-06-07T19:35:24.728Z,22.50
2019-06-07T19:37:55.746Z,22.40
2019-06-07T19:40:25.472Z,22.50
2019-06-07T19:42:56.275Z,22.50
2019-06-07T19:45:30.876Z,22.50
2019-06-07T19:47:58.618Z,22.40
2019-06-07T19:50:28.407Z,22.40
2019-06-07T19:52:59.131Z,22.40
2019-06-07T19:55:28.776Z,22.50
2019-06-07T19:57:59.585Z,22.40
2019-06-07T20:00:29.208Z,22.40
2019-06-07T20:02:59.941Z,22.30
2019-06-07T20:05:29.548Z,22.50
2019-06-07T20:08:00.510Z,22.50
2019-06-07T20:10:30.220Z,22.40
2019-06-07T20:13:00.792Z,22.40
2019-06-07T20:15:31.097Z,22.40
2019-06-07T20:18:01.329Z,22.40
2019-06-07T20:20:30.966Z,22.30
2019-06-07T20:23:00.924Z,22.30
2019-06-07T20:25:30.692Z,22.30
2019-06-07T20:28:01.406Z,22.30
2019-06-07T20:30:32.190Z,21.90
2019-06-07T20:33:01.940Z,21.80
2019-06-07T20:35:31.521Z,22.00
2019-06-07T20:38:01.150Z,22.00
2019-06-07T20:40:30.872Z,22.00
2019-06-07T20:43:01.501Z,22.00
2019-06-07T20:45:34.291Z,21.80
2019-06-07T20:48:04.280Z,21.90
2019-06-07T20:50:33.937Z,22.00
2019-06-07T20:53:05.053Z,22.00
2019-06-07T20:55:34.808Z,21.90
2019-06-07T20:58:05.553Z,21.90
2019-06-07T21:00:35.255Z,22.00
2019-06-07T21:03:05.325Z,22.00
2019-06-07T21:05:34.992Z,22.00
2019-06-07T21:08:08.097Z,21.80
2019-06-07T21:10:35.887Z,21.80
2019-06-07T21:13:05.897Z,21.90
2019-06-07T21:15:48.511Z,21.80
2019-06-07T21:18:16.930Z,21.80
2019-06-07T21:20:40.027Z,21.80
2019-06-07T21:23:09.542Z,21.70
2019-06-07T21:25:39.156Z,21.70
2019-06-07T21:28:09.344Z,21.70
2019-06-07T21:30:38.988Z,21.70
2019-06-07T21:33:09.718Z,21.60
2019-06-07T21:35:39.372Z,21.70
2019-06-07T21:38:09.942Z,21.80
2019-06-07T21:40:39.587Z,21.70
2019-06-07T21:43:10.459Z,21.60
2019-06-07T21:45:40.191Z,21.60
2019-06-07T21:48:11.404Z,21.60
2019-06-07T21:50:41.076Z,21.60
2019-06-07T21:53:10.774Z,21.70
2019-06-07T21:55:41.315Z,21.60
2019-06-07T21:58:11.244Z,21.70
2019-06-07T22:00:55.796Z,21.70
2019-06-07T22:03:25.583Z,21.50
2019-06-07T22:05:55.238Z,21.50
2019-06-07T22:08:25.681Z,21.60
2019-06-07T22:10:56.276Z,21.60
2019-06-07T22:13:25.897Z,21.50
2019-06-07T22:15:55.439Z,21.50
2019-06-07T22:18:24.960Z,21.40
2019-06-07T22:20:55.592Z,21.40
2019-06-07T22:23:25.147Z,21.40
2019-06-07T22:25:54.768Z,21.40
2019-06-07T22:28:24.291Z,21.50
2019-06-07T22:30:53.876Z,21.50
2019-06-07T22:33:25.135Z,21.50
2019-06-07T22:35:54.680Z,21.40
2019-06-07T22:38:24.337Z,21.20
2019-06-07T22:40:53.808Z,21.30
2019-06-07T22:43:23.324Z,21.30
2019-06-07T22:45:52.943Z,21.30
2019-06-07T22:48:22.457Z,21.10
2019-06-07T22:50:52.089Z,21.10
2019-06-07T22:53:21.599Z,21.10
2019-06-07T22:55:52.795Z,21.20
2019-06-07T22:58:22.312Z,21.20
2019-06-07T23:00:51.864Z,21.10
2019-06-07T23:03:21.429Z,21.10
2019-06-07T23:05:51.005Z,21.10
2019-06-07T23:08:20.589Z,21.00
2019-06-07T23:10:50.137Z,21.00
2019-06-07T23:13:19.689Z,21.10
2019-06-07T23:15:50.148Z,21.00
2019-06-07T23:18:19.816Z,21.10
2019-06-07T23:20:51.891Z,21.00
2019-06-07T23:23:24.522Z,20.90
2019-06-07T23:25:56.716Z,20.80
2019-06-07T23:28:28.548Z,20.80
2019-06-07T23:31:01.028Z,20.80
2019-06-07T23:33:34.318Z,20.90
2019-06-07T23:36:07.305Z,20.90
2019-06-07T23:38:40.907Z,20.90
2019-06-07T23:41:13.412Z,20.90
2019-06-07T23:43:46.571Z,20.90
2019-06-07T23:46:19.457Z,20.70
2019-06-07T23:48:52.544Z,20.60
2019-06-07T23:51:22.808Z,20.50
2019-06-07T23:53:52.339Z,20.50
2019-06-07T23:56:22.262Z,20.40
2019-06-07T23:58:53.066Z,20.40
